VOBZ

Details ICAO VOBZ (VGA)
Name VIJAYAWADA
Region India
Timezone Asia/Kolkata (UTC+5.5)
Plans Departing 14
Arriving 20
Stats Elevation 82 ft / 25 m (AMSL)
Location 16.530433° 80.796847°
Runways 1
Magnetic Variation 0.710° W
Sunrise 2018-05-22 00:05:55 UTC / 2018-05-22 05:35:55 Local
Sunset 2018-05-22 13:03:52 UTC / 2018-05-22 18:33:52 Local
Advertisement - Login to hide

Runways

ID Width Length Bearing (true) Bearing (mag) Surface Threshold Offset Overrun Length
08 150 ft / 46 m 5,720 ft / 1,744 m 78.67° 79.38° Asphalt 984 ft / 300 m 200 ft / 61 m
26 150 ft / 46 m 5,720 ft / 1,744 m 258.68° 259.39° Asphalt 0 ft / 0 m 0 ft / 0 m

Map

Weather


0- 5 10 15 20 25 30 35+ Temperature / ° C

Clouds and Precipitation
Forecast for 2018-05-22 12:00 UTC. Updated 2 hours ago

Ground ~20,000 ft ~40,000 ft Winds

METAR

VOBZ 221030Z 18005KT 6000 FEW020 SCT100 39/23 Q1002 NOSIG

TAF

Not found

Frequencies

Tower 123.50 MHz TWR
Warning: Do not use this data for real-world aviation or navigation. No guarantee of current accuracy is given.